createdAt,value
2018-06-05T00:00:55.764Z,0
2018-06-05T00:01:55.722Z,0
2018-06-05T00:02:55.756Z,0
2018-06-05T00:03:55.497Z,0
2018-06-05T00:04:55.747Z,0
2018-06-05T00:05:55.825Z,0
2018-06-05T00:06:55.491Z,0
2018-06-05T00:07:55.467Z,0
2018-06-05T00:08:55.701Z,0
2018-06-05T00:09:55.699Z,0
2018-06-05T00:10:55.729Z,0
2018-06-05T00:11:55.701Z,0
2018-06-05T00:12:55.763Z,0
2018-06-05T00:13:55.733Z,0
2018-06-05T00:14:55.717Z,0
2018-06-05T00:15:55.445Z,0
2018-06-05T00:16:55.711Z,0
2018-06-05T00:17:55.669Z,0
2018-06-05T00:18:55.443Z,0
2018-06-05T00:19:55.687Z,0
2018-06-05T00:20:55.681Z,0
2018-06-05T00:21:55.655Z,0
2018-06-05T00:22:55.644Z,0
2018-06-05T00:23:55.421Z,0
2018-06-05T00:24:55.431Z,0
2018-06-05T00:25:55.671Z,0
2018-06-05T00:26:55.750Z,0
2018-06-05T00:27:55.654Z,0
2018-06-05T00:28:55.399Z,0
2018-06-05T00:29:55.363Z,0
2018-06-05T00:30:55.650Z,0
2018-06-05T00:31:55.606Z,0
2018-06-05T00:32:55.635Z,0
2018-06-05T00:33:55.595Z,0
2018-06-05T00:34:55.640Z,0
2018-06-05T00:35:55.614Z,0
2018-06-05T00:36:55.631Z,0
2018-06-05T00:37:55.579Z,0
2018-06-05T00:38:55.586Z,0
2018-06-05T00:39:55.346Z,0
2018-06-05T00:40:55.363Z,0
2018-06-05T00:41:55.615Z,0
2018-06-05T00:42:55.566Z,0
2018-06-05T00:43:55.585Z,0
2018-06-05T00:44:55.549Z,0
2018-06-05T00:45:55.600Z,0
2018-06-05T00:46:55.574Z,0
2018-06-05T00:47:55.584Z,0
2018-06-05T00:48:55.294Z,0
2018-06-05T00:49:55.067Z,0
2018-06-05T00:50:55.530Z,0
2018-06-05T00:51:55.292Z,0
2018-06-05T00:52:55.281Z,0
2018-06-05T00:53:55.567Z,0
2018-06-05T00:54:55.024Z,0
2018-06-05T00:55:55.554Z,0
2018-06-05T00:56:55.544Z,0
2018-06-05T00:57:55.549Z,0
2018-06-05T00:58:55.510Z,0
2018-06-05T00:59:55.521Z,0
2018-06-05T01:00:55.499Z,0
2018-06-05T01:01:55.023Z,0
2018-06-05T01:02:55.485Z,0
2018-06-05T01:03:55.537Z,0
2018-06-05T01:04:55.691Z,0
2018-06-05T01:05:55.257Z,0
2018-06-05T01:06:55.216Z,0
2018-06-05T01:07:55.017Z,0
2018-06-05T01:08:55.497Z,0
2018-06-05T01:09:55.453Z,0
2018-06-05T01:10:55.454Z,0
2018-06-05T01:11:55.493Z,0
2018-06-05T01:12:55.225Z,0
2018-06-05T01:13:55.484Z,0
2018-06-05T01:14:55.435Z,0
2018-06-05T01:15:55.466Z,0
2018-06-05T01:16:55.425Z,0
2018-06-05T01:17:55.479Z,0
2018-06-05T01:18:55.421Z,0
2018-06-05T01:19:55.438Z,0
2018-06-05T01:20:55.443Z,0
2018-06-05T01:21:55.410Z,0
2018-06-05T01:22:55.451Z,0
2018-06-05T01:23:55.426Z,0
2018-06-05T01:24:55.427Z,0
2018-06-05T01:25:55.141Z,0
2018-06-05T01:26:54.885Z,0
2018-06-05T01:27:55.152Z,0
2018-06-05T01:28:55.420Z,0
2018-06-05T01:29:55.166Z,0
2018-06-05T01:30:55.368Z,0
2018-06-05T01:31:54.881Z,0
2018-06-05T01:32:55.365Z,0
2018-06-05T01:33:55.405Z,0
2018-06-05T01:34:55.362Z,0
2018-06-05T01:35:55.395Z,0
2018-06-05T01:36:55.355Z,0
2018-06-05T01:37:55.404Z,0
2018-06-05T01:38:55.329Z,0
2018-06-05T01:39:55.354Z,0
2018-06-05T01:40:55.338Z,0
2018-06-05T01:41:55.369Z,0
2018-06-05T01:42:55.363Z,0
2018-06-05T01:43:55.331Z,0
2018-06-05T01:44:55.320Z,0
2018-06-05T01:45:55.353Z,0
2018-06-05T01:46:55.307Z,0
2018-06-05T01:47:55.072Z,0
2018-06-05T01:48:55.330Z,0
2018-06-05T01:49:55.336Z,0
2018-06-05T01:50:55.285Z,0
2018-06-05T01:51:55.071Z,0
2018-06-05T01:52:55.290Z,0
2018-06-05T01:53:55.317Z,0
2018-06-05T01:54:55.264Z,0
2018-06-05T01:55:55.021Z,0
2018-06-05T01:56:54.510Z,0
2018-06-05T01:57:55.301Z,0
2018-06-05T01:58:55.292Z,0
2018-06-05T01:59:55.262Z,0
2018-06-05T02:00:55.257Z,4
2018-06-05T02:01:55.230Z,4
2018-06-05T02:02:55.019Z,0
2018-06-05T02:03:54.990Z,0
2018-06-05T02:04:55.268Z,4
2018-06-05T02:05:54.963Z,4
2018-06-05T02:06:54.743Z,4
2018-06-05T02:07:54.703Z,4
2018-06-05T02:08:55.239Z,8
2018-06-05T02:09:55.196Z,4
2018-06-05T02:10:55.242Z,4
2018-06-05T02:11:55.251Z,4
2018-06-05T02:12:55.202Z,8
2018-06-05T02:13:55.234Z,8
2018-06-05T02:14:55.222Z,12
2018-06-05T02:15:55.193Z,12
2018-06-05T02:16:55.192Z,12
2018-06-05T02:17:54.934Z,16
2018-06-05T02:18:55.203Z,16
2018-06-05T02:19:55.181Z,20
2018-06-05T02:20:55.223Z,24
2018-06-05T02:21:54.645Z,28
2018-06-05T02:22:55.195Z,28
2018-06-05T02:23:54.639Z,32
2018-06-05T02:24:54.664Z,40
2018-06-05T02:25:55.136Z,44
2018-06-05T02:26:54.925Z,44
2018-06-05T02:27:54.643Z,52
2018-06-05T02:28:54.903Z,56
2018-06-05T02:29:55.116Z,60
2018-06-05T02:30:54.876Z,64
2018-06-05T02:31:55.147Z,72
2018-06-05T02:32:55.137Z,76
2018-06-05T02:33:54.897Z,84
2018-06-05T02:34:54.862Z,92
2018-06-05T02:35:54.882Z,96
2018-06-05T02:36:55.147Z,108
2018-06-05T02:37:54.579Z,116
2018-06-05T02:38:54.872Z,124
2018-06-05T02:39:55.107Z,136
2018-06-05T02:40:54.855Z,148
2018-06-05T02:41:54.820Z,156
2018-06-05T02:42:54.861Z,164
2018-06-05T02:43:55.092Z,176
2018-06-05T02:44:54.840Z,192
2018-06-05T02:45:55.069Z,208
2018-06-05T02:46:54.801Z,220
2018-06-05T02:47:54.816Z,232
2018-06-05T02:48:55.086Z,244
2018-06-05T02:49:55.040Z,260
2018-06-05T02:50:55.088Z,280
2018-06-05T02:51:55.076Z,300
2018-06-05T02:52:55.075Z,316
2018-06-05T02:53:55.021Z,332
2018-06-05T02:54:54.802Z,348
2018-06-05T02:55:55.008Z,372
2018-06-05T02:56:54.785Z,404
2018-06-05T02:57:54.997Z,440
2018-06-05T02:58:54.800Z,472
2018-06-05T02:59:54.759Z,512
2018-06-05T03:00:54.761Z,548
2018-06-05T03:01:54.742Z,588
2018-06-05T03:02:54.776Z,624
2018-06-05T03:03:54.748Z,656
2018-06-05T03:04:54.988Z,684
2018-06-05T03:05:54.983Z,700
2018-06-05T03:06:55.011Z,720
2018-06-05T03:07:54.984Z,760
2018-06-05T03:08:54.755Z,808
2018-06-05T03:09:54.969Z,864
2018-06-05T03:10:54.732Z,916
2018-06-05T03:11:54.952Z,980
2018-06-05T03:12:54.980Z,1056
2018-06-05T03:13:54.695Z,1128
2018-06-05T03:14:54.721Z,1196
2018-06-05T03:15:54.956Z,1284
2018-06-05T03:16:54.956Z,1384
2018-06-05T03:17:54.660Z,1480
2018-06-05T03:18:54.671Z,1564
2018-06-05T03:19:54.678Z,1632
2018-06-05T03:20:54.421Z,1688
2018-06-05T03:21:54.945Z,1752
2018-06-05T03:22:54.897Z,1812
2018-06-05T03:23:55.163Z,1848
2018-06-05T03:24:54.630Z,1880
2018-06-05T03:25:54.935Z,1920
2018-06-05T03:26:54.659Z,1968
2018-06-05T03:27:54.910Z,2036
2018-06-05T03:28:54.649Z,2108
2018-06-05T03:29:54.867Z,2160
2018-06-05T03:30:54.918Z,2208
2018-06-05T03:31:54.904Z,2280
2018-06-05T03:32:54.628Z,2372
2018-06-05T03:33:54.594Z,2436
2018-06-05T03:34:54.612Z,2432
2018-06-05T03:35:54.609Z,2392
2018-06-05T03:36:54.611Z,2360
2018-06-05T03:37:54.623Z,2408
2018-06-05T03:38:54.831Z,2564
2018-06-05T03:39:54.854Z,2700
2018-06-05T03:40:54.952Z,2704
2018-06-05T03:41:54.869Z,2648
2018-06-05T03:42:54.829Z,2648
2018-06-05T03:43:54.600Z,2716
2018-06-05T03:44:54.818Z,2788
2018-06-05T03:45:54.860Z,2808
2018-06-05T03:46:54.800Z,2816
2018-06-05T03:47:54.566Z,2856
2018-06-05T03:48:54.802Z,2920
2018-06-05T03:49:54.584Z,3028
2018-06-05T03:50:54.830Z,3196
2018-06-05T03:51:54.795Z,3396
2018-06-05T03:52:54.790Z,3592
2018-06-05T03:53:54.825Z,3780
2018-06-05T03:54:54.522Z,4012
2018-06-05T03:55:54.539Z,4204
2018-06-05T03:56:54.766Z,4288
2018-06-05T03:57:54.814Z,4240
2018-06-05T03:58:54.255Z,4232
2018-06-05T03:59:54.542Z,4296
2018-06-05T04:00:54.514Z,4300
2018-06-05T04:01:54.279Z,4460
2018-06-05T04:02:54.492Z,4824
2018-06-05T04:03:54.757Z,5148
2018-06-05T04:04:54.747Z,5268
2018-06-05T04:05:54.532Z,5316
2018-06-05T04:06:54.797Z,5292
2018-06-05T04:07:54.771Z,5296
2018-06-05T04:08:54.739Z,5496
2018-06-05T04:09:54.718Z,5800
2018-06-05T04:10:54.760Z,6092
2018-06-05T04:11:54.750Z,6412
2018-06-05T04:12:54.503Z,6628
2018-06-05T04:13:54.703Z,6436
2018-06-05T04:14:54.745Z,5948
2018-06-05T04:15:54.703Z,5616
2018-06-05T04:16:54.746Z,5636
2018-06-05T04:17:54.696Z,5792
2018-06-05T04:18:54.745Z,6204
2018-06-05T04:19:54.720Z,6532
2018-06-05T04:20:54.711Z,6580
2018-06-05T04:21:54.736Z,6456
2018-06-05T04:22:54.728Z,6300
2018-06-05T04:23:54.441Z,6384
2018-06-05T04:24:54.482Z,6708
2018-06-05T04:25:54.170Z,6876
2018-06-05T04:26:54.725Z,6572
2018-06-05T04:27:54.690Z,6100
2018-06-05T04:28:54.713Z,5788
2018-06-05T04:29:54.675Z,5712
2018-06-05T04:30:54.708Z,5852
2018-06-05T04:31:54.665Z,5892
2018-06-05T04:32:54.441Z,5840
2018-06-05T04:33:54.167Z,5852
2018-06-05T04:34:54.726Z,5956
2018-06-05T04:35:54.685Z,6004
2018-06-05T04:36:54.702Z,6064
2018-06-05T04:37:54.142Z,6288
2018-06-05T04:38:54.655Z,6532
2018-06-05T04:39:54.672Z,6468
2018-06-05T04:40:54.683Z,6104
2018-06-05T04:41:54.689Z,5808
2018-06-05T04:42:54.413Z,5848
2018-06-05T04:43:54.669Z,5960
2018-06-05T04:44:54.674Z,5828
2018-06-05T04:45:54.380Z,5688
2018-06-05T04:46:54.421Z,5760
2018-06-05T04:47:54.512Z,5920
2018-06-05T04:48:54.664Z,5976
2018-06-05T04:49:54.632Z,6008
2018-06-05T04:50:54.683Z,5964
2018-06-05T04:51:54.650Z,5628
2018-06-05T04:52:54.649Z,5512
2018-06-05T04:53:54.368Z,5640
2018-06-05T04:54:54.620Z,5900
2018-06-05T04:55:54.640Z,6032
2018-06-05T04:56:54.653Z,5904
2018-06-05T04:57:54.659Z,5780
2018-06-05T04:58:54.617Z,5876
2018-06-05T04:59:54.638Z,6032
2018-06-05T05:00:54.622Z,6180
2018-06-05T05:01:54.651Z,6364
2018-06-05T05:02:54.361Z,6340
2018-06-05T05:03:54.391Z,6228
2018-06-05T05:04:54.610Z,6236
2018-06-05T05:05:54.651Z,6260
2018-06-05T05:06:54.357Z,6360
2018-06-05T05:07:54.635Z,6256
2018-06-05T05:08:54.620Z,6068
2018-06-05T05:09:54.658Z,5748
2018-06-05T05:10:54.604Z,5788
2018-06-05T05:11:54.813Z,6076
2018-06-05T05:12:54.616Z,6304
2018-06-05T05:13:54.632Z,6240
2018-06-05T05:14:54.590Z,6144
2018-06-05T05:15:54.609Z,6240
2018-06-05T05:16:54.329Z,6288
2018-06-05T05:17:54.632Z,6068
2018-06-05T05:18:54.577Z,5764
2018-06-05T05:19:54.623Z,5648
2018-06-05T05:20:54.590Z,5720
2018-06-05T05:21:54.617Z,5740
2018-06-05T05:22:54.314Z,5520
2018-06-05T05:23:54.584Z,4968
2018-06-05T05:24:54.583Z,4272
2018-06-05T05:25:54.611Z,3740
2018-06-05T05:26:54.350Z,3500
2018-06-05T05:27:54.579Z,3604
2018-06-05T05:28:54.621Z,3864
2018-06-05T05:29:54.057Z,3952
2018-06-05T05:30:54.808Z,3800
2018-06-05T05:31:54.569Z,3672
2018-06-05T05:32:54.600Z,3564
2018-06-05T05:33:54.561Z,3528
2018-06-05T05:34:54.589Z,3660
2018-06-05T05:35:54.336Z,3836
2018-06-05T05:36:54.304Z,3816
2018-06-05T05:37:54.599Z,3736
2018-06-05T05:38:54.547Z,3816
2018-06-05T05:39:54.556Z,3984
2018-06-05T05:40:54.298Z,4212
2018-06-05T05:41:54.593Z,4436
2018-06-05T05:42:54.623Z,4440
2018-06-05T05:43:54.614Z,4388
2018-06-05T05:44:54.295Z,4364
2018-06-05T05:45:54.320Z,4444
2018-06-05T05:46:54.587Z,4612
2018-06-05T05:47:54.544Z,4672
2018-06-05T05:48:54.572Z,4728
2018-06-05T05:49:54.522Z,4844
2018-06-05T05:50:54.307Z,4952
2018-06-05T05:51:54.516Z,4976
2018-06-05T05:52:54.090Z,4988
2018-06-05T05:53:54.276Z,5008
2018-06-05T05:54:54.604Z,5020
2018-06-05T05:55:54.545Z,5028
2018-06-05T05:56:54.549Z,5084
2018-06-05T05:57:54.505Z,5064
2018-06-05T05:58:54.507Z,5076
2018-06-05T05:59:54.527Z,5116
2018-06-05T06:00:54.292Z,5132
2018-06-05T06:01:54.009Z,5044
2018-06-05T06:02:54.580Z,5040
2018-06-05T06:03:54.597Z,5184
2018-06-05T06:04:54.540Z,5476
2018-06-05T06:05:54.497Z,5672
2018-06-05T06:06:54.548Z,5796
2018-06-05T06:07:54.491Z,5884
2018-06-05T06:08:54.264Z,5740
2018-06-05T06:09:54.246Z,5636
2018-06-05T06:10:54.371Z,5724
2018-06-05T06:11:53.996Z,5916
2018-06-05T06:12:54.512Z,6252
2018-06-05T06:13:54.489Z,6716
2018-06-05T06:14:54.531Z,7108
2018-06-05T06:15:54.527Z,7248
2018-06-05T06:16:54.501Z,7132
2018-06-05T06:17:54.509Z,7048
2018-06-05T06:18:54.254Z,7200
2018-06-05T06:19:54.500Z,7396
2018-06-05T06:20:54.511Z,7408
2018-06-05T06:21:54.221Z,7484
2018-06-05T06:22:54.496Z,7648
2018-06-05T06:23:54.475Z,7956
2018-06-05T06:24:54.484Z,8392
2018-06-05T06:25:54.203Z,8852
2018-06-05T06:26:54.553Z,9456
2018-06-05T06:27:54.241Z,9932
2018-06-05T06:28:54.229Z,9500
2018-06-05T06:29:54.491Z,8832
2018-06-05T06:30:54.230Z,8572
2018-06-05T06:31:54.476Z,8312
2018-06-05T06:32:54.466Z,7832
2018-06-05T06:33:54.439Z,7344
2018-06-05T06:34:54.476Z,7040
2018-06-05T06:35:54.498Z,7028
2018-06-05T06:36:54.496Z,7296
2018-06-05T06:37:54.185Z,7416
2018-06-05T06:38:54.482Z,7388
2018-06-05T06:39:54.445Z,7164
2018-06-05T06:40:54.466Z,6948
2018-06-05T06:41:54.453Z,7048
2018-06-05T06:42:54.475Z,7120
2018-06-05T06:43:54.458Z,7076
2018-06-05T06:44:54.465Z,6944
2018-06-05T06:45:54.445Z,6740
2018-06-05T06:46:54.453Z,6536
2018-06-05T06:47:54.206Z,6464
2018-06-05T06:48:54.932Z,6712
2018-06-05T06:49:53.959Z,7116
2018-06-05T06:50:54.197Z,7544
2018-06-05T06:51:54.441Z,8000
2018-06-05T06:52:54.447Z,8204
2018-06-05T06:53:53.909Z,8296
2018-06-05T06:54:54.595Z,8312
2018-06-05T06:55:54.411Z,8392
2018-06-05T06:56:54.463Z,8564
2018-06-05T06:57:54.418Z,8588
2018-06-05T06:58:54.466Z,8600
2018-06-05T06:59:54.180Z,8640
2018-06-05T07:00:54.442Z,8580
2018-06-05T07:01:54.406Z,8196
2018-06-05T07:02:54.411Z,7868
2018-06-05T07:03:53.938Z,7748
2018-06-05T07:04:54.185Z,7680
2018-06-05T07:05:54.498Z,7684
2018-06-05T07:06:54.178Z,7780
2018-06-05T07:07:54.432Z,8060
2018-06-05T07:08:54.409Z,8540
2018-06-05T07:09:54.217Z,8996
2018-06-05T07:10:54.156Z,9292
2018-06-05T07:11:54.449Z,9324
2018-06-05T07:12:54.158Z,9052
2018-06-05T07:13:53.928Z,8712
2018-06-05T07:14:54.142Z,8600
2018-06-05T07:15:54.415Z,8648
2018-06-05T07:16:54.204Z,8668
2018-06-05T07:17:54.461Z,8544
2018-06-05T07:18:54.141Z,8408
2018-06-05T07:19:54.446Z,8300
2018-06-05T07:20:54.170Z,8300
2018-06-05T07:21:54.435Z,8668
2018-06-05T07:22:54.414Z,8868
2018-06-05T07:23:54.422Z,8960
2018-06-05T07:24:53.681Z,8992
2018-06-05T07:25:54.215Z,8960
2018-06-05T07:26:54.694Z,8860
2018-06-05T07:27:54.455Z,8736
2018-06-05T07:28:54.413Z,8636
2018-06-05T07:29:54.488Z,8508
2018-06-05T07:30:54.388Z,8312
2018-06-05T07:31:54.410Z,8292
2018-06-05T07:32:54.160Z,8468
2018-06-05T07:33:54.175Z,8664
2018-06-05T07:34:54.419Z,8852
2018-06-05T07:35:54.605Z,9080
2018-06-05T07:36:54.144Z,9316
2018-06-05T07:37:54.143Z,9480
2018-06-05T07:38:54.212Z,9468
2018-06-05T07:39:54.404Z,9444
2018-06-05T07:40:54.432Z,9528
2018-06-05T07:41:54.123Z,9576
2018-06-05T07:42:54.164Z,9544
2018-06-05T07:43:54.390Z,9652
2018-06-05T07:44:54.428Z,9936
2018-06-05T07:45:54.200Z,10152
2018-06-05T07:46:54.408Z,10172
2018-06-05T07:47:54.414Z,9872
2018-06-05T07:48:54.385Z,9428
2018-06-05T07:49:54.226Z,9168
2018-06-05T07:50:54.463Z,9240
2018-06-05T07:51:54.419Z,9604
2018-06-05T07:52:54.828Z,10068
2018-06-05T07:53:54.440Z,10408
2018-06-05T07:54:54.489Z,10416
2018-06-05T07:55:54.026Z,10080
2018-06-05T07:56:54.522Z,9872
2018-06-05T07:57:54.419Z,9844
2018-06-05T07:58:54.383Z,9948
2018-06-05T07:59:54.421Z,10116
2018-06-05T08:00:54.401Z,10248
2018-06-05T08:01:54.440Z,12560
2018-06-05T08:02:54.378Z,12528
2018-06-05T08:03:54.380Z,12212
2018-06-05T08:04:54.392Z,11968
2018-06-05T08:05:54.428Z,12080
2018-06-05T08:06:54.411Z,12508
2018-06-05T08:07:54.162Z,13096
2018-06-05T08:08:54.393Z,13844
2018-06-05T08:09:54.418Z,14528
2018-06-05T08:10:54.627Z,14580
2018-06-05T08:11:54.558Z,14868
2018-06-05T08:12:54.373Z,15492
2018-06-05T08:13:54.429Z,16288
2018-06-05T08:14:54.396Z,17152
2018-06-05T08:15:54.422Z,17760
2018-06-05T08:16:54.401Z,18112
2018-06-05T08:17:54.443Z,18656
2018-06-05T08:18:54.535Z,19040
2018-06-05T08:19:54.451Z,19936
2018-06-05T08:20:54.456Z,20928
2018-06-05T08:21:54.493Z,21728
2018-06-05T08:22:54.439Z,22496
2018-06-05T08:23:54.171Z,23136
2018-06-05T08:24:54.922Z,24736
2018-06-05T08:25:54.422Z,27616
2018-06-05T08:26:54.441Z,30400
2018-06-05T08:27:54.160Z,32032
2018-06-05T08:28:54.185Z,28064
2018-06-05T08:29:54.122Z,25568
2018-06-05T08:30:54.438Z,24896
2018-06-05T08:31:54.133Z,24768
2018-06-05T08:32:54.484Z,24864
2018-06-05T08:33:54.409Z,24352
2018-06-05T08:34:54.177Z,23328
2018-06-05T08:35:53.922Z,22656
2018-06-05T08:36:54.432Z,22944
2018-06-05T08:37:54.824Z,23552
2018-06-05T08:38:54.501Z,24448
2018-06-05T08:39:54.169Z,25824
2018-06-05T08:40:54.414Z,26848
2018-06-05T08:41:54.170Z,27808
2018-06-05T08:42:53.979Z,28384
2018-06-05T08:43:54.435Z,31072
2018-06-05T08:44:54.469Z,32800
2018-06-05T08:45:54.473Z,35392
2018-06-05T08:46:54.519Z,33184
2018-06-05T08:47:54.467Z,31744
2018-06-05T08:48:54.460Z,28576
2018-06-05T08:49:54.426Z,26016
2018-06-05T08:50:54.496Z,23488
2018-06-05T08:51:54.217Z,21632
2018-06-05T08:52:53.959Z,20960
2018-06-05T08:53:54.190Z,21376
2018-06-05T08:54:54.221Z,21824
2018-06-05T08:55:54.229Z,22560
2018-06-05T08:56:54.499Z,23104
2018-06-05T08:57:54.532Z,23488
2018-06-05T08:58:54.224Z,24160
2018-06-05T08:59:54.089Z,25248
2018-06-05T09:00:54.527Z,26144
2018-06-05T09:01:54.234Z,25344
2018-06-05T09:02:54.537Z,24512
2018-06-05T09:03:54.235Z,24256
2018-06-05T09:04:54.284Z,24032
2018-06-05T09:05:53.994Z,24128
2018-06-05T09:06:54.559Z,23680
2018-06-05T09:07:54.295Z,22592
2018-06-05T09:08:54.550Z,21440
2018-06-05T09:09:54.542Z,20384
2018-06-05T09:10:54.442Z,19712
2018-06-05T09:11:54.561Z,19456
2018-06-05T09:12:54.454Z,19648
2018-06-05T09:13:54.596Z,20256
2018-06-05T09:14:54.307Z,20992
2018-06-05T09:15:54.577Z,21696
2018-06-05T09:16:54.307Z,22336
2018-06-05T09:17:54.620Z,22976
2018-06-05T09:18:54.308Z,23808
2018-06-05T09:19:54.609Z,24832
2018-06-05T09:20:54.586Z,25504
2018-06-05T09:21:54.651Z,26112
2018-06-05T09:22:54.364Z,26464
2018-06-05T09:23:54.394Z,26304
2018-06-05T09:24:54.348Z,26144
2018-06-05T09:25:54.636Z,26560
2018-06-05T09:26:54.363Z,27296
2018-06-05T09:27:54.386Z,28384
2018-06-05T09:28:54.762Z,29344
2018-06-05T09:29:54.685Z,30560
2018-06-05T09:30:54.616Z,31648
2018-06-05T09:31:54.648Z,31424
2018-06-05T09:32:54.131Z,30496
2018-06-05T09:33:54.736Z,29728
2018-06-05T09:34:54.399Z,28992
2018-06-05T09:35:54.472Z,28224
2018-06-05T09:36:54.720Z,27872
2018-06-05T09:37:54.694Z,28256
2018-06-05T09:38:54.688Z,28768
2018-06-05T09:39:54.699Z,28544
2018-06-05T09:40:54.447Z,28576
2018-06-05T09:41:54.689Z,29440
2018-06-05T09:42:54.694Z,30464
2018-06-05T09:43:54.456Z,31360
2018-06-05T09:44:54.724Z,31488
2018-06-05T09:45:54.766Z,31776
2018-06-05T09:46:54.582Z,32032
2018-06-05T09:47:54.484Z,31136
2018-06-05T09:48:54.495Z,30080
2018-06-05T09:49:54.786Z,28704
2018-06-05T09:50:54.717Z,27424
2018-06-05T09:51:54.602Z,26976
2018-06-05T09:52:54.529Z,27552
2018-06-05T09:53:54.490Z,28576
2018-06-05T09:54:54.821Z,29056
2018-06-05T09:55:54.527Z,28352
2018-06-05T09:56:54.576Z,28096
2018-06-05T09:57:54.418Z,28064
2018-06-05T09:58:54.292Z,28032
2018-06-05T09:59:54.538Z,27456
2018-06-05T10:00:54.579Z,26880
2018-06-05T10:01:54.572Z,26560
2018-06-05T10:02:54.582Z,26272
2018-06-05T10:03:54.995Z,25856
2018-06-05T10:04:54.571Z,25376
2018-06-05T10:05:54.615Z,25088
2018-06-05T10:06:54.851Z,25024
2018-06-05T10:07:54.353Z,24864
2018-06-05T10:08:54.866Z,24704
2018-06-05T10:09:54.907Z,24864
2018-06-05T10:10:54.885Z,25568
2018-06-05T10:11:54.607Z,26304
2018-06-05T10:12:54.624Z,26560
2018-06-05T10:13:54.906Z,26944
2018-06-05T10:14:54.660Z,27552
2018-06-05T10:15:54.641Z,28256
2018-06-05T10:16:54.662Z,28640
2018-06-05T10:17:54.686Z,28640
2018-06-05T10:18:54.635Z,29280
2018-06-05T10:19:54.959Z,29568
2018-06-05T10:20:55.016Z,28704
2018-06-05T10:21:54.956Z,27584
2018-06-05T10:22:54.928Z,26400
2018-06-05T10:23:54.726Z,24864
2018-06-05T10:24:54.687Z,23584
2018-06-05T10:25:54.731Z,23392
2018-06-05T10:26:54.968Z,23936
2018-06-05T10:27:54.833Z,24544
2018-06-05T10:28:54.439Z,25184
2018-06-05T10:29:54.731Z,25856
2018-06-05T10:30:54.993Z,26784
2018-06-05T10:31:54.737Z,27488
2018-06-05T10:32:54.722Z,27712
2018-06-05T10:33:54.728Z,27392
2018-06-05T10:34:55.300Z,26400
2018-06-05T10:35:54.739Z,25344
2018-06-05T10:36:55.042Z,24960
2018-06-05T10:37:55.007Z,24800
2018-06-05T10:38:54.793Z,24320
2018-06-05T10:39:54.753Z,23840
2018-06-05T10:40:54.779Z,23712
2018-06-05T10:41:54.769Z,23104
2018-06-05T10:42:55.073Z,22560
2018-06-05T10:43:55.346Z,22048
2018-06-05T10:44:54.812Z,21344
2018-06-05T10:45:55.156Z,20672
2018-06-05T10:46:55.669Z,20224
2018-06-05T10:47:54.822Z,19712
2018-06-05T10:48:54.865Z,19264
2018-06-05T10:49:55.084Z,18848
2018-06-05T10:50:55.112Z,18592
2018-06-05T10:51:55.088Z,18304
2018-06-05T10:52:54.862Z,17952
2018-06-05T10:53:54.828Z,17600
2018-06-05T10:54:54.879Z,17312
2018-06-05T10:55:54.836Z,17152
2018-06-05T10:56:55.125Z,17056
2018-06-05T10:57:54.843Z,17184
2018-06-05T10:58:55.157Z,17696
2018-06-05T10:59:55.174Z,18400
2018-06-05T11:00:54.899Z,18944
2018-06-05T11:01:55.120Z,18848
2018-06-05T11:02:55.125Z,18144
2018-06-05T11:03:54.894Z,17280
2018-06-05T11:04:54.669Z,17312
2018-06-05T11:05:54.927Z,17600
2018-06-05T11:06:55.178Z,17536
2018-06-05T11:07:55.177Z,17312
2018-06-05T11:08:55.185Z,17376
2018-06-05T11:09:55.153Z,17536
2018-06-05T11:10:55.192Z,17696
2018-06-05T11:11:55.166Z,17920
2018-06-05T11:12:55.044Z,18080
2018-06-05T11:13:55.188Z,17984
2018-06-05T11:14:55.442Z,17696
2018-06-05T11:15:54.946Z,17824
2018-06-05T11:16:55.215Z,18432
2018-06-05T11:17:54.942Z,18208
2018-06-05T11:18:54.692Z,18432
2018-06-05T11:19:55.254Z,18944
2018-06-05T11:20:55.327Z,19072
2018-06-05T11:21:55.253Z,18240
2018-06-05T11:22:55.219Z,17152
2018-06-05T11:23:54.908Z,16672
2018-06-05T11:24:55.215Z,16576
2018-06-05T11:25:55.341Z,16672
2018-06-05T11:26:55.259Z,16896
2018-06-05T11:27:55.278Z,16704
2018-06-05T11:28:55.248Z,16224
2018-06-05T11:29:55.273Z,15620
2018-06-05T11:30:54.718Z,15268
2018-06-05T11:31:54.737Z,14876
2018-06-05T11:32:55.258Z,14312
2018-06-05T11:33:55.348Z,14152
2018-06-05T11:34:55.291Z,14192
2018-06-05T11:35:55.355Z,14156
2018-06-05T11:36:55.452Z,13884
2018-06-05T11:37:55.073Z,13480
2018-06-05T11:38:55.318Z,13500
2018-06-05T11:39:54.792Z,13848
2018-06-05T11:40:55.283Z,14404
2018-06-05T11:41:55.311Z,14832
2018-06-05T11:42:55.326Z,15176
2018-06-05T11:43:55.381Z,15300
2018-06-05T11:44:55.288Z,15188
2018-06-05T11:45:55.324Z,14820
2018-06-05T11:46:55.196Z,14596
2018-06-05T11:47:55.279Z,14536
2018-06-05T11:48:55.324Z,14756
2018-06-05T11:49:55.159Z,15268
2018-06-05T11:50:55.569Z,16160
2018-06-05T11:51:55.322Z,16736
2018-06-05T11:52:55.027Z,16960
2018-06-05T11:53:55.026Z,17024
2018-06-05T11:54:55.072Z,17184
2018-06-05T11:55:55.305Z,17248
2018-06-05T11:56:55.325Z,17088
2018-06-05T11:57:55.311Z,16992
2018-06-05T11:58:55.327Z,17120
2018-06-05T11:59:55.053Z,17376
2018-06-05T12:00:55.379Z,17216
2018-06-05T12:01:55.238Z,16800
2018-06-05T12:02:55.389Z,16032
2018-06-05T12:03:55.335Z,15052
2018-06-05T12:04:55.357Z,14296
2018-06-05T12:05:55.383Z,13812
2018-06-05T12:06:55.382Z,13520
2018-06-05T12:07:55.325Z,13288
2018-06-05T12:08:54.821Z,13072
2018-06-05T12:09:55.305Z,12820
2018-06-05T12:10:55.369Z,12432
2018-06-05T12:11:55.350Z,11932
2018-06-05T12:12:55.382Z,11520
2018-06-05T12:13:54.841Z,11256
2018-06-05T12:14:55.402Z,10884
2018-06-05T12:15:55.365Z,10200
2018-06-05T12:16:55.127Z,9256
2018-06-05T12:17:55.469Z,8500
2018-06-05T12:18:55.112Z,8456
2018-06-05T12:19:55.179Z,9144
2018-06-05T12:20:55.373Z,9512
2018-06-05T12:21:55.400Z,8668
2018-06-05T12:22:55.320Z,8812
2018-06-05T12:23:55.128Z,9204
2018-06-05T12:24:55.398Z,9152
2018-06-05T12:25:55.333Z,9032
2018-06-05T12:26:55.399Z,8880
2018-06-05T12:27:55.124Z,8756
2018-06-05T12:28:55.376Z,8680
2018-06-05T12:29:54.839Z,8636
2018-06-05T12:30:55.404Z,8616
2018-06-05T12:31:54.846Z,8572
2018-06-05T12:32:55.375Z,8512
2018-06-05T12:33:55.361Z,8468
2018-06-05T12:34:55.382Z,8432
2018-06-05T12:35:55.367Z,8424
2018-06-05T12:36:55.545Z,8436
2018-06-05T12:37:54.824Z,8492
2018-06-05T12:38:55.356Z,8568
2018-06-05T12:39:54.850Z,8668
2018-06-05T12:40:55.401Z,8672
2018-06-05T12:41:55.267Z,8728
2018-06-05T12:42:55.346Z,8912
2018-06-05T12:43:55.359Z,8904
2018-06-05T12:44:55.336Z,8896
2018-06-05T12:45:55.394Z,8624
2018-06-05T12:46:55.358Z,8588
2018-06-05T12:47:55.404Z,8968
2018-06-05T12:48:55.118Z,9360
2018-06-05T12:49:55.390Z,10368
2018-06-05T12:50:55.356Z,11620
2018-06-05T12:51:55.381Z,13272
2018-06-05T12:52:55.156Z,14720
2018-06-05T12:53:55.351Z,15068
2018-06-05T12:54:55.085Z,15832
2018-06-05T12:55:55.399Z,14512
2018-06-05T12:56:55.404Z,13168
2018-06-05T12:57:55.492Z,11824
2018-06-05T12:58:55.372Z,12132
2018-06-05T12:59:55.584Z,11448
2018-06-05T13:00:55.121Z,11744
2018-06-05T13:01:55.393Z,12120
2018-06-05T13:02:55.381Z,12424
2018-06-05T13:03:55.374Z,13520
2018-06-05T13:04:55.376Z,14252
2018-06-05T13:05:55.363Z,13212
2018-06-05T13:06:55.158Z,11364
2018-06-05T13:07:55.134Z,9908
2018-06-05T13:08:55.125Z,8924
2018-06-05T13:09:55.359Z,8456
2018-06-05T13:10:55.412Z,8328
2018-06-05T13:11:55.284Z,8064
2018-06-05T13:12:54.879Z,8176
2018-06-05T13:13:55.421Z,7912
2018-06-05T13:14:55.365Z,7832
2018-06-05T13:15:55.397Z,8304
2018-06-05T13:16:55.396Z,8384
2018-06-05T13:17:55.448Z,7928
2018-06-05T13:18:55.416Z,8128
2018-06-05T13:19:55.431Z,8208
2018-06-05T13:20:55.136Z,8656
2018-06-05T13:21:55.366Z,9824
2018-06-05T13:22:56.057Z,10956
2018-06-05T13:23:55.156Z,11328
2018-06-05T13:24:55.166Z,9980
2018-06-05T13:25:55.453Z,8444